Data for 09/11/2010

Time Sea-Level Adjusted Pressure Absolute Pressure Temperature Relative Humidity Dew Point   
(mb) (inHg) (mb) (inHg) (C) (F) (%) (C) (F)
00:05 1021 30.15 850 25.1 7.4 45.4 67 1.7 35.1
00:10 1021 30.15 850 25.1 7.6 45.8 67 1.8 35.3
00:15 1021 30.15 850 25.1 7.9 46.2 64 1.4 34.6
00:20 1021 30.15 850 25.1 8.3 46.9 62 1.4 34.5
00:25 1021 30.15 850 25.1 8.4 47.2 60 1.2 34.2
00:30 1021 30.15 850 25.1 8.5 47.3 61 1.4 34.6
00:35 1021 30.15 850 25.1 8.4 47.1 61 1.5 34.6
00:40 1021 30.15 850 25.1 8.4 47.1 62 1.5 34.8
00:45 1021 30.15 850 25.1 8.2 46.8 61 1.2 34.1
00:50 1021 30.15 850 25.1 8.3 47 61 1.3 34.4
00:55 1021 30.15 850 25.1 8.2 46.8 63 1.7 35.1
01:00 1021 30.15 850 25.1 7.5 45.5 69 2.2 36
01:05 1021 30.15 850 25.1 7 44.6 65 0.8 33.5
01:10 1021 30.15 850 25.1 7.7 45.9 66 1.7 35.1
01:15 1021 30.15 850 25.1 7 44.6 72 2.3 36.1
01:20 1021 30.15 850 25.1 6.1 43 72 1.5 34.7
01:25 1021 30.15 850 25.1 6.1 43 75 1.9 35.5
01:30 1021 30.15 850 25.1 5.7 42.3 76 1.8 35.2
01:35 1021 30.15 850 25.1 5.6 42 76 1.7 35
01:40 1021 30.15 850 25.1 5.5 42 76 1.7 35.1
01:45 1021 30.15 850 25.1 5.6 42.1 76 1.7 35.1
01:50 1021 30.15 850 25.1 5.6 42.1 76 1.7 35.1
01:55 1021 30.15 850 25.1 5.6 42.2 75 1.7 35
02:00 1021 30.15 850 25.1 5.8 42.4 75 1.6 35
02:05 1021 30.15 850 25.1 5.8 42.4 76 1.9 35.4
02:10 1021 30.15 850 25.1 5.5 41.9 77 1.8 35.2
02:15 1021 30.15 850 25.1 5.3 41.6 78 1.8 35.2
02:20 1021 30.15 850 25.1 5.1 41.2 79 1.8 35.2
02:25 1021 30.15 850 25.1 4.9 40.9 79 1.6 34.8
02:30 1021 30.15 850 25.1 5 41 80 1.8 35.2
02:35 1021 30.15 850 25.1 4.9 40.8 79 1.6 34.9
02:40 1021 30.15 850 25.1 5.2 41.4 78 1.7 35
02:45 1021 30.15 850 25.1 5 41 79 1.7 35.1
02:50 1021 30.15 850 25.1 5 41 79 1.7 35
02:55 1021 30.15 850 25.1 4.9 40.8 80 1.7 35
03:00 1021 30.15 850 25.1 5.1 41.1 79 1.7 35.1
03:05 1021 30.15 850 25.1 5 41 79 1.6 34.9
03:10 1021 30.15 850 25.1 5 40.9 79 1.7 35
03:15 1021 30.15 850 25.1 4.8 40.7 80 1.6 34.9
03:20 1021 30.15 850 25.1 4.9 40.8 79 1.6 34.9
03:25 1021 30.15 850 25.1 4.9 40.8 80 1.7 35
03:30 1021 30.15 850 25.1 4.9 40.9 80 1.7 35.1
03:35 1021 30.15 850 25.1 4.9 40.8 80 1.7 35.1
03:40 1021 30.15 850 25.1 4.7 40.5 81 1.8 35.2
03:45 1021 30.15 850 25.1 4.5 40.2 82 1.7 35
03:50 1021 30.15 850 25.1 4.6 40.3 81 1.7 35.1
03:55 1021 30.15 850 25.1 4.5 40.1 82 1.7 35
04:00 1021 30.15 850 25.1 3.9 39 86 1.7 35
04:05 1021 30.15 850 25.1 3.6 38.5 86 1.4 34.6
04:10 1021 30.15 850 25.1 3.9 39.1 84 1.5 34.7
04:15 1021 30.15 850 25.1 4.1 39.4 83 1.5 34.7
04:20 1021 30.15 850 25.1 4.2 39.5 83 1.5 34.7
04:25 1021 30.15 850 25.1 4.4 40 81 1.5 34.7
04:30 1021 30.15 850 25.1 4.5 40 81 1.6 34.8
04:35 1021 30.15 850 25.1 4.4 39.9 82 1.5 34.7
04:40 1021 30.15 851 25.13 4.2 39.6 83 1.6 34.8
04:45 1021 30.15 851 25.13 4.1 39.3 84 1.5 34.8
04:50 1021 30.15 851 25.13 4.1 39.3 83 1.5 34.6
04:55 1021 30.15 851 25.13 3.8 38.9 85 1.5 34.6
05:00 1021 30.15 851 25.13 3.6 38.6 85 1.4 34.5
05:05 1021 30.15 851 25.13 3.4 38 87 1.4 34.5
05:10 1021 30.15 851 25.13 3.3 38 87 1.3 34.4
05:15 1021 30.15 851 25.13 3.1 37.6 88 1.2 34.2
05:20 1021 30.15 851 25.13 3.1 37.7 86 1.1 34
05:25 1021 30.15 851 25.13 3.2 37.8 86 1.1 34
05:30 1021 30.15 851 25.13 3.3 37.9 86 1.1 34
05:35 1021 30.15 851 25.13 3.4 38.1 85 1.1 34
05:40 1021 30.15 851 25.13 3.2 37.8 87 1.3 34.3
05:45 1021 30.15 851 25.13 3 37.4 87 1.1 33.9
05:50 1021 30.15 851 25.13 3.1 37.6 86 1 33.9
05:55 1021 30.15 851 25.13 3.3 37.9 84 0.9 33.6
06:00 1021 30.15 851 25.13 3.7 38.6 83 1.1 34.1
06:05 1021 30.15 851 25.13 3.7 38.7 83 1.1 34
06:10 1022 30.18 851 25.13 3.5 38.3 85 1.3 34.3
06:15 1022 30.18 851 25.13 3.3 37.9 85 1.1 33.9
06:20 1021 30.15 851 25.13 3.2 37.7 86 1.1 33.9
06:25 1021 30.15 851 25.13 3 37.5 86 1 33.7
06:30 1021 30.15 851 25.13 3.1 37.6 86 0.9 33.7
06:35 1021 30.15 851 25.13 3.1 37.5 86 0.9 33.6
06:40 1021 30.15 851 25.13 3.1 37.5 86 0.9 33.6
06:45 1021 30.15 851 25.13 3.1 37.6 85 0.9 33.6
06:50 1021 30.15 851 25.13 3.3 38 84 0.9 33.7
06:55 1021 30.15 851 25.13 3.6 38.4 83 0.9 33.6
07:00 1021 30.15 851 25.13 3.7 38.7 82 0.9 33.6
07:05 1021 30.15 851 25.13 3.7 38.6 83 1 33.8
07:10 1021 30.15 851 25.13 3.5 38.3 83 0.9 33.5
07:15 1021 30.15 851 25.13 3.6 38.4 82 0.7 33.3
07:20 1022 30.18 851 25.13 4 39.1 80 0.9 33.6
07:25 1022 30.18 851 25.13 4.1 39.5 80 1 33.8
07:30 1022 30.18 851 25.13 4 39.3 80 0.8 33.5
07:35 1022 30.18 851 25.13 4.1 39.4 79 0.8 33.4
07:40 1022 30.18 851 25.13 4.3 39.7 78 0.7 33.3
07:45 1022 30.18 851 25.13 4.6 40.2 75 0.6 33.1
07:50 1022 30.18 851 25.13 4.9 40.7 75 0.8 33.5
07:55 1022 30.18 851 25.13 4.9 40.9 75 0.8 33.5
08:00 1022 30.18 851 25.13 5.2 41.4 74 1 33.8
08:05 1022 30.18 851 25.13 5.7 42.3 73 1.3 34.4
08:10 1022 30.18 851 25.13 5.8 42.5 72 1.2 34.2
08:15 1022 30.18 851 25.13 6.2 43.1 73 1.6 34.9
08:20 1022 30.18 851 25.13 6.2 43.1 72 1.5 34.7
08:25 1022 30.18 851 25.13 6.1 43 73 1.7 35.1
08:30 1022 30.18 851 25.13 6.2 43.1 74 1.8 35.3
08:35 1022 30.18 851 25.13 6.6 43.8 71 1.6 35
08:40 1022 30.18 851 25.13 7.1 44.8 69 1.8 35.3
08:45 1022 30.18 851 25.13 7.7 45.9 69 2.4 36.4
08:50 1022 30.18 851 25.13 8 46.5 68 2.6 36.6
08:55 1022 30.18 851 25.13 8.4 47.1 67 2.7 36.9
09:00 1022 30.18 851 25.13 9.1 48.4 65 2.8 37
09:05 1022 30.18 851 25.13 9.9 49.8 63 3.1 37.6
09:10 1022 30.18 851 25.13 10.5 50.9 61 3.4 38.2
09:15 1022 30.18 851 25.13 10.9 51.7 57 2.8 37
09:20 1022 30.18 851 25.13 11.3 52.4 54 2.3 36.2
09:25 1022 30.18 851 25.13 11.2 52.1 56 2.9 37.1
09:30 1022 30.18 851 25.13 11 51.7 56 2.7 36.8
09:35 1022 30.18 851 25.13 11.8 53.2 49 1.3 34.4
09:40 1022 30.18 851 25.13 11.9 53.3 50 1.9 35.4
09:45 1022 30.18 851 25.13 12.1 53.8 50 2.1 35.7
09:50 1022 30.18 851 25.13 12.1 53.9 52 2.7 36.9
09:55 1022 30.18 851 25.13 12.5 54.5 49 2.2 35.9
10:00 1022 30.18 851 25.13 13.2 55.7 47 2 35.7
10:05 1022 30.18 851 25.13 12.6 54.6 45 1.1 34
10:10 1022 30.18 851 25.13 13.2 55.7 43 0.8 33.5
10:15 1022 30.18 851 25.13 13.8 56.8 41 0.8 33.5
10:20 1022 30.18 851 25.13 14.1 57.5 42 1.3 34.4
10:25 1022 30.18 851 25.13 14.6 58.3 40 1.4 34.5
10:30 1022 30.18 851 25.13 14.9 58.8 41 1.8 35.2
10:35 1022 30.18 851 25.13 14.8 58.7 42 2 35.7
10:40 1022 30.18 851 25.13 14.6 58.3 43 2.4 36.3
10:45 1022 30.18 851 25.13 13.9 57.1 43 1.6 34.9
10:50 1022 30.18 851 25.13 14.4 57.9 39 0.8 33.4
10:55 1021 30.15 851 25.13 14.6 58.3 42 2 35.7
11:00 1021 30.15 851 25.13 14.9 58.7 40 1.6 34.9
11:05 1021 30.15 851 25.13 14.8 58.7 39 1 33.7
11:10 1021 30.15 851 25.13 15.4 59.6 37 1 33.8
11:15 1021 30.15 851 25.13 15.2 59.4 36 0.4 32.8
11:20 1021 30.15 851 25.13 14.5 58.1 39 0.8 33.5
11:25 1021 30.15 850 25.1 14.7 58.5 40 1.4 34.5
11:30 1021 30.15 850 25.1 15.3 59.5 39 1.4 34.6
11:35 1021 30.15 850 25.1 14.9 58.9 38 0.9 33.5
11:40 1021 30.15 850 25.1 15.9 60.6 37 1.5 34.7
11:45 1021 30.15 850 25.1 15.7 60.2 37 1.2 34.2
11:50 1021 30.15 850 25.1 16 60.8 35 0.7 33.2
11:55 1021 30.15 850 25.1 16.2 61.1 36 1 33.9
12:00 1021 30.15 850 25.1 15.9 60.5 38 1.6 34.8
12:05 1021 30.15 850 25.1 16.7 62 34 0.8 33.4
12:10 1021 30.15 850 25.1 16.2 61.2 32 -0.3 31.4
12:15 1021 30.15 850 25.1 16.5 61.7 32 0.1 32.1
12:20 1021 30.15 850 25.1 17.5 63.4 33 1 33.7
12:25 1021 30.15 850 25.1 18 64.4 31 0.9 33.7
12:30 1021 30.15 850 25.1 18.2 64.8 29 0.1 32.3
12:35 1021 30.15 850 25.1 17.7 63.9 33 1.2 34.1
12:40 1021 30.15 850 25.1 16.8 62.3 33 0.6 33
12:45 1021 30.15 850 25.1 17.6 63.8 30 0.1 32.2
12:50 1021 30.15 850 25.1 18.4 65.2 28 -0 31.9
12:55 1020 30.12 850 25.1 18.5 65.3 28 -0 32
13:00 1020 30.12 850 25.1 18.1 64.5 28 -0.4 31.2
13:05 1020 30.12 850 25.1 19.1 66.3 28 0.1 32.2
13:10 1020 30.12 850 25.1 19.4 66.9 26 -0.2 31.6
13:15 1020 30.12 850 25.1 19.3 66.8 27 0.2 32.4
13:20 1020 30.12 850 25.1 19.7 67.5 27 0.3 32.5
13:25 1020 30.12 849 25.07 19 66.2 27 -0.5 31.1
13:30 1020 30.12 849 25.07 19.1 66.4 26 -0.9 30.4
13:35 1020 30.12 849 25.07 20.1 68.1 25 -0.5 31.1
13:40 1020 30.12 849 25.07 20 68.1 26 0.1 32.2
13:45 1020 30.12 849 25.07 20.1 68.2 24 -1.1 30
13:50 1020 30.12 849 25.07 20.1 68.2 25 -0.6 30.9
13:55 1020 30.12 849 25.07 20.5 68.8 26 0.4 32.7
14:00 1020 30.12 849 25.07 20.6 69 18 -4.2 24.4
14:05 1020 30.12 849 25.07 21.1 69.9 23 -0.9 30.3
14:10 1020 30.12 849 25.07 20.3 68.5 22 -2 28.4
14:15 1020 30.12 849 25.07 19.8 67.6 22 -2.5 27.4
14:20 1020 30.12 849 25.07 20.7 69.2 20 -3.2 26.2
14:25 1020 30.12 849 25.07 20.9 69.6 20 -2.5 27.5
14:30 1019 30.09 849 25.07 20.4 68.7 20 -3.1 26.4
14:35 1019 30.09 849 25.07 20.8 69.4 20 -3.1 26.4
14:40 1019 30.09 849 25.07 21.3 70.3 18 -4 24.7
14:45 1019 30.09 849 25.07 20.8 69.4 19 -3.5 25.7
14:50 1019 30.09 848 25.04 21.1 69.9 21 -1.6 29.1
14:55 1019 30.09 848 25.04 21.7 71 17 -4.2 24.5
15:00 1019 30.09 848 25.04 21.4 70.5 19 -3.2 26.3
15:05 1019 30.09 848 25.04 21 69.8 19 -3.6 25.5
15:10 1019 30.09 848 25.04 21.4 70.4 20 -2.1 28.3
15:15 1019 30.09 848 25.04 21.7 71 18 -3.6 25.6
15:20 1019 30.09 848 25.04 21.2 70.2 18 -3.6 25.5
15:25 1019 30.09 848 25.04 21.4 70.6 18 -4 24.8
15:30 1019 30.09 848 25.04 21.1 70 19 -3.2 26.3
15:35 1019 30.09 848 25.04 20.9 69.7 19 -3.4 25.8
15:40 1019 30.09 848 25.04 21.2 70.1 18 -4 24.9
15:45 1019 30.09 848 25.04 21.1 70 18 -3.9 25
15:50 1019 30.09 848 25.04 21.2 70.2 18 -3.5 25.6
15:55 1019 30.09 848 25.04 21.8 71.2 17 -4.3 24.3
16:00 1019 30.09 848 25.04 21.9 71.4 16 -5.3 22.5
16:05 1019 30.09 848 25.04 22 71.5 18 -3.6 25.5
16:10 1019 30.09 848 25.04 22.1 71.7 16 -4.5 23.9
16:15 1019 30.09 848 25.04 22.1 71.7 17 -3.7 25.4
16:20 1019 30.09 848 25.04 21.9 71.5 17 -4.1 24.7
16:25 1019 30.09 848 25.04 21.7 71 18 -3.8 25.2
16:30 1019 30.09 848 25.04 22.1 71.8 19 -2.4 27.7
16:35 1019 30.09 848 25.04 22.1 71.7 18 -3.5 25.8
16:40 1019 30.09 848 25.04 21.6 70.9 18 -3.8 25.1
16:45 1019 30.09 848 25.04 21.5 70.7 18 -3.3 26
16:50 1019 30.09 848 25.04 21.8 71.2 19 -3 26.6
16:55 1019 30.09 848 25.04 21.7 71.1 18 -3.5 25.7
17:00 1019 30.09 848 25.04 21.5 70.6 18 -3.6 25.6
17:05 1019 30.09 848 25.04 21.6 70.9 19 -2.9 26.7
17:10 1019 30.09 848 25.04 21.5 70.6 19 -3.3 26.1
17:15 1019 30.09 848 25.04 21.4 70.6 18 -3.6 25.5
17:20 1019 30.09 848 25.04 21.1 70 19 -3.3 26.1
17:25 1019 30.09 848 25.04 21.2 70.2 18 -3.7 25.3
17:30 1019 30.09 848 25.04 21.2 70.2 19 -3.1 26.5
17:35 1019 30.09 848 25.04 21 69.9 20 -2.9 26.7
17:40 1019 30.09 848 25.04 21.1 69.9 19 -3.1 26.4
17:45 1019 30.09 848 25.04 21 69.8 20 -2.4 27.8
17:50 1019 30.09 848 25.04 21.1 70 21 -1.8 28.7
17:55 1019 30.09 848 25.04 21.1 69.9 21 -1.8 28.8
18:00 1019 30.09 848 25.04 20.8 69.5 22 -1.7 28.9
18:05 1019 30.09 848 25.04 20.8 69.4 21 -1.9 28.5
18:10 1019 30.09 848 25.04 20.8 69.4 21 -1.9 28.5
18:15 1019 30.09 848 25.04 20.6 69 23 -1.2 29.9
18:20 1019 30.09 848 25.04 20.2 68.4 23 -1.5 29.3
18:25 1019 30.09 848 25.04 20.1 68.2 23 -1.7 28.9
18:30 1019 30.09 848 25.04 20 67.9 23 -1.5 29.4
18:35 1019 30.09 848 25.04 19.7 67.5 23 -1.6 29.2
18:40 1019 30.09 848 25.04 19.6 67.3 24 -1.6 29.2
18:45 1019 30.09 848 25.04 19.5 67.1 24 -1.3 29.7
18:50 1019 30.09 848 25.04 19.4 66.8 25 -0.9 30.4
18:55 1019 30.09 848 25.04 19.2 66.5 24 -1.6 29.2
19:00 1019 30.09 848 25.04 19.1 66.4 25 -1.3 29.7
19:05 1019 30.09 848 25.04 18.9 66.1 26 -0.7 30.8
19:10 1019 30.09 848 25.04 18.7 65.7 26 -1 30.1
19:15 1019 30.09 848 25.04 18.5 65.4 26 -1 30.2
19:20 1019 30.09 848 25.04 18.5 65.2 26 -1.3 29.7
19:25 1019 30.09 848 25.04 18.3 64.9 27 -1 30.1
19:30 1019 30.09 848 25.04 18.1 64.5 27 -1.2 29.8
19:35 1019 30.09 848 25.04 17.9 64.1 27 -1.1 30
19:40 1019 30.09 848 25.04 17.6 63.6 28 -1 30.2
19:45 1019 30.09 848 25.04 17 62.6 32 0.4 32.7
19:50 1019 30.09 848 25.04 16.3 61.3 33 0.1 32.1
19:55 1019 30.09 848 25.04 16 60.8 34 0.1 32.2
20:00 1019 30.09 848 25.04 15.6 60 37 0.9 33.6
20:05 1019 30.09 848 25.04 14.9 58.8 39 1.1 34
20:10 1019 30.09 848 25.04 14.2 57.6 42 1.5 34.8
20:15 1019 30.09 849 25.07 14.1 57.3 40 0.8 33.4
20:20 1019 30.09 849 25.07 14.1 57.3 40 0.7 33.3
20:25 1019 30.09 849 25.07 14.1 57.5 40 0.8 33.5
20:30 1020 30.12 849 25.07 14 57.2 40 0.8 33.5
20:35 1020 30.12 849 25.07 13.8 56.9 42 1.3 34.3
20:40 1020 30.12 849 25.07 13.7 56.6 44 1.8 35.3
20:45 1020 30.12 849 25.07 13.1 55.6 48 2.3 36.2
20:50 1020 30.12 849 25.07 12.9 55.2 46 1.5 34.7
20:55 1020 30.12 849 25.07 13.3 55.9 41 0.5 33
21:00 1020 30.12 849 25.07 13.7 56.6 41 0.7 33.2
21:05 1020 30.12 849 25.07 13.8 56.8 40 0.6 33.1
21:10 1020 30.12 849 25.07 13.7 56.6 41 0.8 33.5
21:15 1020 30.12 849 25.07 13.4 56 41 0.5 33
21:20 1020 30.12 849 25.07 13.4 56 41 0.6 33
21:25 1020 30.12 849 25.07 13.3 55.9 41 0.3 32.6
21:30 1020 30.12 849 25.07 13.4 56 41 0.3 32.5
21:35 1020 30.12 849 25.07 13.2 55.7 42 0.7 33.2
21:40 1020 30.12 849 25.07 13 55.3 42 0.3 32.6
21:45 1020 30.12 849 25.07 13 55.5 43 0.8 33.5
21:50 1020 30.12 849 25.07 12.8 55.1 41 0.1 32.3
21:55 1020 30.12 849 25.07 13.1 55.6 41 0.1 32.2
22:00 1020 30.12 849 25.07 13 55.5 42 0.4 32.7
22:05 1020 30.12 849 25.07 13.2 55.7 42 0.5 32.8
22:10 1020 30.12 849 25.07 13 55.4 43 0.7 33.3
22:15 1020 30.12 849 25.07 13 55.4 42 0.3 32.5
22:20 1020 30.12 849 25.07 12.9 55.2 42 0.3 32.6
22:25 1020 30.12 849 25.07 12.9 55.3 41 0.2 32.4
22:30 1020 30.12 849 25.07 13 55.4 41 -0 32
22:35 1020 30.12 849 25.07 12.9 55.1 41 0.1 32.2
22:40 1020 30.12 849 25.07 12.8 55.1 42 0.3 32.5
22:45 1020 30.12 849 25.07 12.8 55 43 0.5 32.9
22:50 1020 30.12 849 25.07 12.6 54.6 43 0.5 32.9
22:55 1020 30.12 849 25.07 12.4 54.4 44 0.5 32.8
23:00 1020 30.12 849 25.07 12.4 54.2 43 0.2 32.4
23:05 1020 30.12 849 25.07 12.6 54.6 41 -0.3 31.4
23:10 1020 30.12 849 25.07 12.8 55 41 -0.2 31.6
23:15 1020 30.12 849 25.07 12.9 55.1 41 0 32.1
23:20 1020 30.12 849 25.07 12.9 55.2 42 0.5 32.8
23:25 1020 30.12 850 25.1 12.7 54.9 41 -0.3 31.5
23:30 1020 30.12 850 25.1 13 55.5 38 -0.9 30.4
23:35 1020 30.12 850 25.1 13.4 56.2 37 -1.1 30.1
23:40 1020 30.12 850 25.1 13.6 56.5 37 -0.8 30.5
23:45 1020 30.12 850 25.1 13.6 56.4 37 -0.8 30.6
23:50 1020 30.12 850 25.1 13.6 56.4 39 -0.1 31.8
23:55 1020 30.12 850 25.1 13.3 55.9 40 0.1 32.2
24:00 1020 30.12 850 25.1 13 55.5 41 0.2 32.4